Main page
METAR-TAF:

METAR-TAF

Airports :

Batesville Regional Airport

Batesville, Arkansas, United States

latitude: 35-44N, longitude: 091-39W, elevation: 462 ft

Current weather observation

The report was made 8 minutes ago, at 12:56 UTC
Wind 23 mph from the Southwest with gusts up to 28 mph
Temperature 70°F
Humidity 100%
Pressure 29.90 in. Hg
Visibility: 3 miles
Broken clouds at a height of 7000 ft
Overcast at a height of 8500 ft
thunderstorm, mist

METAR: KBVX 231256Z AUTO 23020G24KT 3SM TS BR BKN070 OVC085 21/21 A2990 RMK AO2 LTG DSNT SE-W SLP124 P0010 T02060206

Time: 08:04 (13:04 UTC)


TAF: missing

Weather observations and forecasts of more than 4000 airports (METAR and TAF reports).

The available stations are represented by yellow and red dots on the map.

Hover mouse over dot to see the name of the station.

Then click to see weather observations and forecasts.

To change the map : click on the green buttons with a black cross to zoom in, on the green button with a dash to zoom out, or on the green arrows for adjacent maps.


METAR-TAF: